sensor_id;sensor_type;location;lat;lon;timestamp;P1;durP1;ratioP1;P2;durP2;ratioP2
41167;SDS011;26906;45.658;9.272;2023-08-30T05:36:18;5.60;;;1.30;;
41167;SDS011;26906;45.658;9.272;2023-08-30T05:39:10;4.63;;;1.15;;
41167;SDS011;26906;45.658;9.272;2023-08-30T05:41:44;5.18;;;1.10;;
41167;SDS011;26906;45.658;9.272;2023-08-30T05:44:10;8.73;;;1.88;;
41167;SDS011;26906;45.658;9.272;2023-08-30T05:46:35;11.52;;;1.48;;
41167;SDS011;26906;45.658;9.272;2023-08-30T05:49:01;10.57;;;1.98;;
41167;SDS011;26906;45.658;9.272;2023-08-30T05:51:28;9.02;;;1.52;;
41167;SDS011;26906;45.658;9.272;2023-08-30T05:53:54;8.27;;;1.20;;
41167;SDS011;26906;45.658;9.272;2023-08-30T05:56:20;7.97;;;1.30;;
41167;SDS011;26906;45.658;9.272;2023-08-30T05:58:46;6.70;;;1.38;;
41167;SDS011;26906;45.658;9.272;2023-08-30T06:01:12;3.65;;;1.08;;
41167;SDS011;26906;45.658;9.272;2023-08-30T06:03:38;6.95;;;1.17;;
41167;SDS011;26906;45.658;9.272;2023-08-30T06:06:04;4.45;;;0.93;;
41167;SDS011;26906;45.658;9.272;2023-08-30T06:08:30;4.13;;;1.00;;
41167;SDS011;26906;45.658;9.272;2023-08-30T06:10:56;5.97;;;1.20;;
41167;SDS011;26906;45.658;9.272;2023-08-30T06:13:21;2.78;;;0.80;;
41167;SDS011;26906;45.658;9.272;2023-08-30T06:15:53;4.40;;;1.20;;
41167;SDS011;26906;45.658;9.272;2023-08-30T06:18:19;2.92;;;1.20;;
41167;SDS011;26906;45.658;9.272;2023-08-30T06:20:45;3.97;;;1.40;;
41167;SDS011;26906;45.658;9.272;2023-08-30T06:23:11;4.97;;;1.33;;
41167;SDS011;26906;45.658;9.272;2023-08-30T06:25:36;3.88;;;1.10;;
41167;SDS011;26906;45.658;9.272;2023-08-30T06:28:02;3.67;;;1.20;;
41167;SDS011;26906;45.658;9.272;2023-08-30T06:30:28;4.72;;;1.40;;
41167;SDS011;26906;45.658;9.272;2023-08-30T06:32:55;6.60;;;1.50;;
41167;SDS011;26906;45.658;9.272;2023-08-30T06:35:21;1.95;;;1.20;;
41167;SDS011;26906;45.658;9.272;2023-08-30T06:37:47;5.38;;;1.60;;
41167;SDS011;26906;45.658;9.272;2023-08-30T06:40:13;6.97;;;1.95;;
41167;SDS011;26906;45.658;9.272;2023-08-30T06:42:39;3.47;;;1.65;;
41167;SDS011;26906;45.658;9.272;2023-08-30T06:45:05;4.43;;;1.80;;
41167;SDS011;26906;45.658;9.272;2023-08-30T06:47:31;6.93;;;3.17;;
41167;SDS011;26906;45.658;9.272;2023-08-30T06:49:57;7.85;;;2.88;;
41167;SDS011;26906;45.658;9.272;2023-08-30T06:52:23;6.72;;;2.90;;
41167;SDS011;26906;45.658;9.272;2023-08-30T06:54:48;7.95;;;2.70;;
41167;SDS011;26906;45.658;9.272;2023-08-30T06:57:14;7.68;;;2.65;;
41167;SDS011;26906;45.658;9.272;2023-08-30T06:59:40;4.50;;;2.70;;
41167;SDS011;26906;45.658;9.272;2023-08-30T07:02:05;4.72;;;2.88;;
41167;SDS011;26906;45.658;9.272;2023-08-30T07:04:31;9.70;;;3.08;;
41167;SDS011;26906;45.658;9.272;2023-08-30T07:06:57;7.45;;;3.63;;
41167;SDS011;26906;45.658;9.272;2023-08-30T07:09:22;6.22;;;3.00;;
41167;SDS011;26906;45.658;9.272;2023-08-30T07:11:54;8.15;;;2.97;;
41167;SDS011;26906;45.658;9.272;2023-08-30T07:14:20;8.10;;;3.13;;
41167;SDS011;26906;45.658;9.272;2023-08-30T07:16:46;4.18;;;3.05;;
41167;SDS011;26906;45.658;9.272;2023-08-30T07:19:12;8.00;;;3.20;;
41167;SDS011;26906;45.658;9.272;2023-08-30T07:21:38;3.70;;;2.10;;
41167;SDS011;26906;45.658;9.272;2023-08-30T07:24:05;7.40;;;2.40;;
41167;SDS011;26906;45.658;9.272;2023-08-30T07:26:32;3.58;;;2.28;;
41167;SDS011;26906;45.658;9.272;2023-08-30T07:28:57;7.00;;;2.92;;
41167;SDS011;26906;45.658;9.272;2023-08-30T07:31:23;6.50;;;2.15;;
41167;SDS011;26906;45.658;9.272;2023-08-30T07:33:48;9.60;;;3.40;;
41167;SDS011;26906;45.658;9.272;2023-08-30T07:36:14;4.15;;;2.80;;
41167;SDS011;26906;45.658;9.272;2023-08-30T07:38:40;6.82;;;2.88;;
41167;SDS011;26906;45.658;9.272;2023-08-30T07:41:05;9.10;;;3.33;;
41167;SDS011;26906;45.658;9.272;2023-08-30T07:43:31;5.38;;;2.63;;
41167;SDS011;26906;45.658;9.272;2023-08-30T07:45:57;7.03;;;2.90;;
41167;SDS011;26906;45.658;9.272;2023-08-30T07:48:24;5.00;;;3.00;;
41167;SDS011;26906;45.658;9.272;2023-08-30T07:50:49;5.53;;;3.13;;
41167;SDS011;26906;45.658;9.272;2023-08-30T07:53:15;6.20;;;2.55;;
41167;SDS011;26906;45.658;9.272;2023-08-30T07:55:42;5.55;;;3.17;;
41167;SDS011;26906;45.658;9.272;2023-08-30T07:58:14;5.53;;;2.92;;
41167;SDS011;26906;45.658;9.272;2023-08-30T08:00:40;5.45;;;2.42;;
41167;SDS011;26906;45.658;9.272;2023-08-30T08:03:06;6.50;;;2.92;;
41167;SDS011;26906;45.658;9.272;2023-08-30T08:05:31;4.30;;;3.05;;
41167;SDS011;26906;45.658;9.272;2023-08-30T08:07:59;4.20;;;2.55;;
41167;SDS011;26906;45.658;9.272;2023-08-30T08:10:26;9.13;;;2.92;;
41167;SDS011;26906;45.658;9.272;2023-08-30T08:12:52;5.07;;;2.83;;
41167;SDS011;26906;45.658;9.272;2023-08-30T08:15:17;4.82;;;3.10;;
41167;SDS011;26906;45.658;9.272;2023-08-30T08:17:43;8.93;;;2.95;;
41167;SDS011;26906;45.658;9.272;2023-08-30T08:20:09;6.28;;;3.05;;
41167;SDS011;26906;45.658;9.272;2023-08-30T08:22:35;6.88;;;3.05;;
41167;SDS011;26906;45.658;9.272;2023-08-30T08:25:00;8.95;;;3.33;;
41167;SDS011;26906;45.658;9.272;2023-08-30T08:27:26;5.32;;;2.60;;
41167;SDS011;26906;45.658;9.272;2023-08-30T08:29:52;5.18;;;2.70;;
41167;SDS011;26906;45.658;9.272;2023-08-30T08:32:17;6.03;;;2.90;;
41167;SDS011;26906;45.658;9.272;2023-08-30T08:34:43;4.25;;;2.60;;
41167;SDS011;26906;45.658;9.272;2023-08-30T08:37:09;7.63;;;2.78;;
41167;SDS011;26906;45.658;9.272;2023-08-30T08:39:36;4.28;;;2.10;;
41167;SDS011;26906;45.658;9.272;2023-08-30T08:42:01;5.13;;;2.33;;
41167;SDS011;26906;45.658;9.272;2023-08-30T08:44:31;9.88;;;3.00;;
41167;SDS011;26906;45.658;9.272;2023-08-30T08:46:57;3.70;;;2.55;;
41167;SDS011;26906;45.658;9.272;2023-08-30T08:49:24;5.47;;;2.17;;
41167;SDS011;26906;45.658;9.272;2023-08-30T08:51:54;6.57;;;2.38;;
41167;SDS011;26906;45.658;9.272;2023-08-30T08:54:20;5.28;;;2.50;;
41167;SDS011;26906;45.658;9.272;2023-08-30T08:56:46;4.75;;;2.30;;
41167;SDS011;26906;45.658;9.272;2023-08-30T08:59:12;4.35;;;2.38;;
41167;SDS011;26906;45.658;9.272;2023-08-30T09:01:38;7.18;;;2.40;;
41167;SDS011;26906;45.658;9.272;2023-08-30T09:04:10;7.13;;;2.30;;
41167;SDS011;26906;45.658;9.272;2023-08-30T09:06:37;4.30;;;1.90;;
41167;SDS011;26906;45.658;9.272;2023-08-30T09:09:04;3.00;;;1.85;;
41167;SDS011;26906;45.658;9.272;2023-08-30T09:11:31;5.10;;;2.58;;
41167;SDS011;26906;45.658;9.272;2023-08-30T09:13:57;3.90;;;2.03;;
41167;SDS011;26906;45.658;9.272;2023-08-30T09:16:23;3.30;;;2.28;;
41167;SDS011;26906;45.658;9.272;2023-08-30T09:19:02;4.68;;;2.00;;
41167;SDS011;26906;45.658;9.272;2023-08-30T09:21:29;3.95;;;2.08;;
41167;SDS011;26906;45.658;9.272;2023-08-30T09:23:56;3.60;;;1.88;;
41167;SDS011;26906;45.658;9.272;2023-08-30T09:26:26;2.72;;;2.03;;
41167;SDS011;26906;45.658;9.272;2023-08-30T09:29:02;2.88;;;1.85;;
41167;SDS011;26906;45.658;9.272;2023-08-30T09:31:35;2.72;;;1.67;;
41167;SDS011;26906;45.658;9.272;2023-08-30T09:34:03;3.25;;;1.67;;
41167;SDS011;26906;45.658;9.272;2023-08-30T09:36:39;3.97;;;2.05;;
41167;SDS011;26906;45.658;9.272;2023-08-30T09:39:13;3.28;;;2.30;;
41167;SDS011;26906;45.658;9.272;2023-08-30T09:41:43;4.45;;;2.22;;
41167;SDS011;26906;45.658;9.272;2023-08-30T09:44:10;4.38;;;2.25;;
41167;SDS011;26906;45.658;9.272;2023-08-30T09:46:44;4.07;;;1.58;;
41167;SDS011;26906;45.658;9.272;2023-08-30T09:49:11;2.75;;;1.63;;
41167;SDS011;26906;45.658;9.272;2023-08-30T09:51:39;2.38;;;1.40;;
41167;SDS011;26906;45.658;9.272;2023-08-30T09:54:13;5.63;;;1.92;;
41167;SDS011;26906;45.658;9.272;2023-08-30T09:56:47;4.72;;;1.42;;
41167;SDS011;26906;45.658;9.272;2023-08-30T09:59:13;1.83;;;1.45;;
41167;SDS011;26906;45.658;9.272;2023-08-30T10:01:42;2.65;;;1.30;;
41167;SDS011;26906;45.658;9.272;2023-08-30T10:04:09;3.25;;;1.40;;
41167;SDS011;26906;45.658;9.272;2023-08-30T10:06:39;2.05;;;1.08;;
41167;SDS011;26906;45.658;9.272;2023-08-30T10:09:05;3.65;;;1.80;;
41167;SDS011;26906;45.658;9.272;2023-08-30T10:11:36;1.95;;;1.10;;
41167;SDS011;26906;45.658;9.272;2023-08-30T10:14:03;3.13;;;1.50;;
41167;SDS011;26906;45.658;9.272;2023-08-30T10:16:30;2.58;;;1.20;;
41167;SDS011;26906;45.658;9.272;2023-08-30T10:19:15;4.57;;;1.75;;
41167;SDS011;26906;45.658;9.272;2023-08-30T10:21:44;3.33;;;1.90;;
41167;SDS011;26906;45.658;9.272;2023-08-30T10:24:12;3.13;;;2.20;;
41167;SDS011;26906;45.658;9.272;2023-08-30T10:26:41;2.63;;;2.00;;
41167;SDS011;26906;45.658;9.272;2023-08-30T10:29:09;4.70;;;2.33;;
41167;SDS011;26906;45.658;9.272;2023-08-30T10:31:37;3.83;;;2.38;;
41167;SDS011;26906;45.658;9.272;2023-08-30T10:34:11;4.55;;;2.05;;
41167;SDS011;26906;45.658;9.272;2023-08-30T10:36:42;3.85;;;2.08;;
41167;SDS011;26906;45.658;9.272;2023-08-30T10:39:12;2.70;;;1.75;;
41167;SDS011;26906;45.658;9.272;2023-08-30T10:41:53;2.33;;;1.80;;
41167;SDS011;26906;45.658;9.272;2023-08-30T10:44:21;4.95;;;1.70;;
41167;SDS011;26906;45.658;9.272;2023-08-30T10:46:51;5.20;;;1.75;;
41167;SDS011;26906;45.658;9.272;2023-08-30T10:49:18;5.03;;;1.73;;
41167;SDS011;26906;45.658;9.272;2023-08-30T10:51:54;2.60;;;1.73;;
41167;SDS011;26906;45.658;9.272;2023-08-30T10:54:22;3.20;;;1.80;;
41167;SDS011;26906;45.658;9.272;2023-08-30T10:59:19;5.20;;;1.58;;
41167;SDS011;26906;45.658;9.272;2023-08-30T11:01:46;3.15;;;1.20;;
41167;SDS011;26906;45.658;9.272;2023-08-30T11:04:16;1.98;;;1.13;;
41167;SDS011;26906;45.658;9.272;2023-08-30T11:06:46;3.97;;;1.15;;
41167;SDS011;26906;45.658;9.272;2023-08-30T11:09:14;3.42;;;1.40;;
41167;SDS011;26906;45.658;9.272;2023-08-30T11:11:44;4.85;;;1.25;;
41167;SDS011;26906;45.658;9.272;2023-08-30T11:14:13;5.38;;;1.10;;
41167;SDS011;26906;45.658;9.272;2023-08-30T11:16:39;3.05;;;1.60;;
41167;SDS011;26906;45.658;9.272;2023-08-30T11:19:06;1.45;;;0.88;;
41167;SDS011;26906;45.658;9.272;2023-08-30T11:21:33;2.03;;;1.23;;
41167;SDS011;26906;45.658;9.272;2023-08-30T11:24:01;3.42;;;0.75;;
41167;SDS011;26906;45.658;9.272;2023-08-30T11:26:28;1.52;;;0.60;;
41167;SDS011;26906;45.658;9.272;2023-08-30T11:28:54;2.78;;;0.70;;
41167;SDS011;26906;45.658;9.272;2023-08-30T11:33:58;1.58;;;0.80;;
41167;SDS011;26906;45.658;9.272;2023-08-30T11:36:28;2.58;;;0.60;;
41167;SDS011;26906;45.658;9.272;2023-08-30T11:38:55;5.00;;;0.93;;
41167;SDS011;26906;45.658;9.272;2023-08-30T11:41:22;2.10;;;0.77;;
41167;SDS011;26906;45.658;9.272;2023-08-30T11:43:48;1.15;;;0.90;;
41167;SDS011;26906;45.658;9.272;2023-08-30T11:46:15;1.60;;;0.90;;
41167;SDS011;26906;45.658;9.272;2023-08-30T11:48:42;1.58;;;1.10;;
41167;SDS011;26906;45.658;9.272;2023-08-30T11:51:09;4.57;;;1.05;;
41167;SDS011;26906;45.658;9.272;2023-08-30T11:53:36;1.40;;;1.20;;
41167;SDS011;26906;45.658;9.272;2023-08-30T11:56:02;1.10;;;0.90;;
41167;SDS011;26906;45.658;9.272;2023-08-30T11:58:31;3.20;;;1.00;;
41167;SDS011;26906;45.658;9.272;2023-08-30T12:00:58;2.65;;;0.90;;
41167;SDS011;26906;45.658;9.272;2023-08-30T12:03:28;2.50;;;1.10;;
41167;SDS011;26906;45.658;9.272;2023-08-30T12:05:54;4.35;;;1.05;;
41167;SDS011;26906;45.658;9.272;2023-08-30T12:08:20;1.60;;;0.95;;
41167;SDS011;26906;45.658;9.272;2023-08-30T12:10:51;1.30;;;0.90;;
41167;SDS011;26906;45.658;9.272;2023-08-30T12:13:32;2.08;;;0.90;;
41167;SDS011;26906;45.658;9.272;2023-08-30T12:15:59;8.77;;;1.40;;
41167;SDS011;26906;45.658;9.272;2023-08-30T12:18:31;8.30;;;1.63;;
41167;SDS011;26906;45.658;9.272;2023-08-30T12:21:01;5.40;;;0.90;;
41167;SDS011;26906;45.658;9.272;2023-08-30T12:23:28;4.75;;;1.00;;
41167;SDS011;26906;45.658;9.272;2023-08-30T12:26:00;1.85;;;0.70;;
41167;SDS011;26906;45.658;9.272;2023-08-30T12:28:38;5.45;;;2.03;;
41167;SDS011;26906;45.658;9.272;2023-08-30T12:31:05;7.00;;;1.20;;
41167;SDS011;26906;45.658;9.272;2023-08-30T12:33:32;8.48;;;1.50;;
41167;SDS011;26906;45.658;9.272;2023-08-30T12:35:59;11.45;;;1.33;;
41167;SDS011;26906;45.658;9.272;2023-08-30T12:38:25;4.05;;;1.13;;
41167;SDS011;26906;45.658;9.272;2023-08-30T12:40:53;1.92;;;1.00;;
41167;SDS011;26906;45.658;9.272;2023-08-30T12:43:19;1.40;;;1.00;;
41167;SDS011;26906;45.658;9.272;2023-08-30T12:45:46;3.25;;;1.00;;
41167;SDS011;26906;45.658;9.272;2023-08-30T12:48:13;3.85;;;1.30;;
41167;SDS011;26906;45.658;9.272;2023-08-30T12:50:43;6.22;;;1.10;;
41167;SDS011;26906;45.658;9.272;2023-08-30T12:53:11;2.53;;;1.00;;
41167;SDS011;26906;45.658;9.272;2023-08-30T12:55:37;3.55;;;1.08;;
41167;SDS011;26906;45.658;9.272;2023-08-30T12:58:05;1.80;;;0.98;;
41167;SDS011;26906;45.658;9.272;2023-08-30T13:00:32;3.90;;;0.70;;
41167;SDS011;26906;45.658;9.272;2023-08-30T13:02:58;1.85;;;0.93;;
41167;SDS011;26906;45.658;9.272;2023-08-30T13:05:24;1.55;;;0.85;;
41167;SDS011;26906;45.658;9.272;2023-08-30T13:07:50;3.10;;;1.08;;
41167;SDS011;26906;45.658;9.272;2023-08-30T13:10:16;1.33;;;0.80;;
41167;SDS011;26906;45.658;9.272;2023-08-30T13:12:42;1.70;;;0.95;;
41167;SDS011;26906;45.658;9.272;2023-08-30T13:15:08;0.80;;;0.80;;
41167;SDS011;26906;45.658;9.272;2023-08-30T13:17:34;2.17;;;0.80;;
41167;SDS011;26906;45.658;9.272;2023-08-30T13:20:00;0.93;;;0.60;;
41167;SDS011;26906;45.658;9.272;2023-08-30T13:22:27;2.75;;;0.70;;
41167;SDS011;26906;45.658;9.272;2023-08-30T13:24:53;1.50;;;0.80;;
41167;SDS011;26906;45.658;9.272;2023-08-30T13:27:18;15.55;;;2.47;;
41167;SDS011;26906;45.658;9.272;2023-08-30T13:29:45;62.40;;;6.18;;
41167;SDS011;26906;45.658;9.272;2023-08-30T13:32:11;39.45;;;2.95;;
41167;SDS011;26906;45.658;9.272;2023-08-30T13:34:36;71.13;;;7.20;;
41167;SDS011;26906;45.658;9.272;2023-08-30T13:37:03;43.97;;;3.97;;
41167;SDS011;26906;45.658;9.272;2023-08-30T13:39:29;1.42;;;0.88;;
41167;SDS011;26906;45.658;9.272;2023-08-30T13:41:55;3.88;;;1.02;;
41167;SDS011;26906;45.658;9.272;2023-08-30T13:44:21;17.70;;;2.00;;
41167;SDS011;26906;45.658;9.272;2023-08-30T13:46:47;1.48;;;0.80;;
41167;SDS011;26906;45.658;9.272;2023-08-30T13:49:14;2.35;;;0.75;;
41167;SDS011;26906;45.658;9.272;2023-08-30T13:51:40;3.47;;;1.10;;
41167;SDS011;26906;45.658;9.272;2023-08-30T13:54:06;2.28;;;0.82;;
41167;SDS011;26906;45.658;9.272;2023-08-30T13:56:32;1.13;;;0.77;;
41167;SDS011;26906;45.658;9.272;2023-08-30T13:58:58;1.00;;;0.85;;
41167;SDS011;26906;45.658;9.272;2023-08-30T14:01:24;1.73;;;1.20;;
41167;SDS011;26906;45.658;9.272;2023-08-30T14:03:49;1.80;;;0.80;;
41167;SDS011;26906;45.658;9.272;2023-08-30T14:06:15;2.90;;;1.05;;
41167;SDS011;26906;45.658;9.272;2023-08-30T14:08:41;2.42;;;1.05;;
41167;SDS011;26906;45.658;9.272;2023-08-30T14:11:07;4.47;;;1.45;;
41167;SDS011;26906;45.658;9.272;2023-08-30T14:13:33;3.13;;;1.10;;
41167;SDS011;26906;45.658;9.272;2023-08-30T14:16:02;3.13;;;0.93;;
41167;SDS011;26906;45.658;9.272;2023-08-30T14:18:28;1.05;;;0.85;;
41167;SDS011;26906;45.658;9.272;2023-08-30T14:20:57;2.05;;;0.80;;
41167;SDS011;26906;45.658;9.272;2023-08-30T14:23:24;2.58;;;1.40;;
41167;SDS011;26906;45.658;9.272;2023-08-30T14:25:57;1.88;;;0.75;;
41167;SDS011;26906;45.658;9.272;2023-08-30T14:28:24;1.73;;;1.00;;
41167;SDS011;26906;45.658;9.272;2023-08-30T14:30:50;0.95;;;0.85;;
41167;SDS011;26906;45.658;9.272;2023-08-30T14:33:16;1.67;;;0.80;;
41167;SDS011;26906;45.658;9.272;2023-08-30T14:35:43;1.92;;;0.90;;
41167;SDS011;26906;45.658;9.272;2023-08-30T14:38:09;1.48;;;0.90;;
41167;SDS011;26906;45.658;9.272;2023-08-30T14:40:34;3.13;;;1.77;;
41167;SDS011;26906;45.658;9.272;2023-08-30T14:43:02;5.32;;;1.10;;
41167;SDS011;26906;45.658;9.272;2023-08-30T14:45:28;1.42;;;0.65;;
41167;SDS011;26906;45.658;9.272;2023-08-30T14:47:54;2.65;;;1.70;;
41167;SDS011;26906;45.658;9.272;2023-08-30T14:50:20;1.50;;;1.15;;
41167;SDS011;26906;45.658;9.272;2023-08-30T14:52:45;1.25;;;1.05;;
41167;SDS011;26906;45.658;9.272;2023-08-30T14:55:11;2.13;;;1.05;;
41167;SDS011;26906;45.658;9.272;2023-08-30T14:57:37;2.47;;;1.45;;
41167;SDS011;26906;45.658;9.272;2023-08-30T15:00:03;2.30;;;1.00;;
41167;SDS011;26906;45.658;9.272;2023-08-30T15:02:30;2.83;;;1.42;;
41167;SDS011;26906;45.658;9.272;2023-08-30T15:04:57;2.75;;;1.17;;
41167;SDS011;26906;45.658;9.272;2023-08-30T15:07:22;2.42;;;1.00;;
41167;SDS011;26906;45.658;9.272;2023-08-30T15:09:48;1.92;;;1.00;;
41167;SDS011;26906;45.658;9.272;2023-08-30T15:12:14;4.03;;;1.20;;
41167;SDS011;26906;45.658;9.272;2023-08-30T15:14:40;3.33;;;0.90;;
41167;SDS011;26906;45.658;9.272;2023-08-30T15:17:08;2.25;;;1.20;;
41167;SDS011;26906;45.658;9.272;2023-08-30T15:19:34;2.90;;;1.35;;
41167;SDS011;26906;45.658;9.272;2023-08-30T15:22:01;2.17;;;1.10;;
41167;SDS011;26906;45.658;9.272;2023-08-30T15:24:27;4.55;;;1.30;;
41167;SDS011;26906;45.658;9.272;2023-08-30T15:26:53;3.00;;;0.90;;
41167;SDS011;26906;45.658;9.272;2023-08-30T15:29:19;1.60;;;0.80;;
41167;SDS011;26906;45.658;9.272;2023-08-30T15:31:45;2.03;;;1.17;;
41167;SDS011;26906;45.658;9.272;2023-08-30T15:34:16;2.60;;;1.00;;
41167;SDS011;26906;45.658;9.272;2023-08-30T15:36:43;2.92;;;1.40;;
41167;SDS011;26906;45.658;9.272;2023-08-30T15:39:09;3.85;;;1.10;;
41167;SDS011;26906;45.658;9.272;2023-08-30T15:41:37;1.85;;;0.90;;
41167;SDS011;26906;45.658;9.272;2023-08-30T15:44:02;2.00;;;0.80;;
41167;SDS011;26906;45.658;9.272;2023-08-30T15:46:28;1.58;;;0.95;;
41167;SDS011;26906;45.658;9.272;2023-08-30T15:48:54;2.35;;;1.30;;
41167;SDS011;26906;45.658;9.272;2023-08-30T15:51:20;2.25;;;1.00;;
41167;SDS011;26906;45.658;9.272;2023-08-30T15:53:46;2.70;;;1.05;;
41167;SDS011;26906;45.658;9.272;2023-08-30T15:56:12;6.65;;;0.90;;
41167;SDS011;26906;45.658;9.272;2023-08-30T15:58:37;1.95;;;0.90;;
41167;SDS011;26906;45.658;9.272;2023-08-30T16:01:06;0.80;;;0.68;;
41167;SDS011;26906;45.658;9.272;2023-08-30T16:03:32;3.45;;;0.90;;
41167;SDS011;26906;45.658;9.272;2023-08-30T16:06:00;1.55;;;0.90;;
41167;SDS011;26906;45.658;9.272;2023-08-30T16:08:26;1.67;;;0.82;;
41167;SDS011;26906;45.658;9.272;2023-08-30T16:10:53;2.22;;;0.80;;
41167;SDS011;26906;45.658;9.272;2023-08-30T16:13:20;2.53;;;0.82;;
41167;SDS011;26906;45.658;9.272;2023-08-30T16:15:46;1.02;;;0.73;;
41167;SDS011;26906;45.658;9.272;2023-08-30T16:18:11;1.95;;;0.90;;
41167;SDS011;26906;45.658;9.272;2023-08-30T16:20:37;3.17;;;1.10;;
41167;SDS011;26906;45.658;9.272;2023-08-30T16:23:03;3.08;;;0.80;;
41167;SDS011;26906;45.658;9.272;2023-08-30T16:25:29;2.45;;;0.90;;
41167;SDS011;26906;45.658;9.272;2023-08-30T16:27:55;1.88;;;0.60;;
41167;SDS011;26906;45.658;9.272;2023-08-30T16:30:21;0.73;;;0.60;;
41167;SDS011;26906;45.658;9.272;2023-08-30T16:32:48;2.25;;;0.68;;
41167;SDS011;26906;45.658;9.272;2023-08-30T16:35:14;1.40;;;0.70;;
41167;SDS011;26906;45.658;9.272;2023-08-30T16:37:39;2.47;;;1.02;;
41167;SDS011;26906;45.658;9.272;2023-08-30T16:40:05;7.05;;;1.50;;
41167;SDS011;26906;45.658;9.272;2023-08-30T16:42:31;3.97;;;1.45;;
41167;SDS011;26906;45.658;9.272;2023-08-30T16:44:58;2.25;;;1.30;;
41167;SDS011;26906;45.658;9.272;2023-08-30T16:47:24;2.30;;;1.25;;
41167;SDS011;26906;45.658;9.272;2023-08-30T16:49:50;2.33;;;0.90;;
41167;SDS011;26906;45.658;9.272;2023-08-30T16:52:17;4.20;;;1.10;;
41167;SDS011;26906;45.658;9.272;2023-08-30T16:54:44;1.48;;;0.80;;
41167;SDS011;26906;45.658;9.272;2023-08-30T16:57:10;3.42;;;0.77;;
41167;SDS011;26906;45.658;9.272;2023-08-30T16:59:36;3.92;;;0.90;;
41167;SDS011;26906;45.658;9.272;2023-08-30T17:02:01;1.95;;;0.88;;
41167;SDS011;26906;45.658;9.272;2023-08-30T17:04:28;1.35;;;0.90;;
41167;SDS011;26906;45.658;9.272;2023-08-30T17:06:54;0.95;;;0.60;;
41167;SDS011;26906;45.658;9.272;2023-08-30T17:09:25;4.00;;;0.80;;
41167;SDS011;26906;45.658;9.272;2023-08-30T17:11:52;5.10;;;0.73;;
41167;SDS011;26906;45.658;9.272;2023-08-30T17:14:18;2.58;;;1.20;;
41167;SDS011;26906;45.658;9.272;2023-08-30T17:16:44;2.83;;;0.90;;
41167;SDS011;26906;45.658;9.272;2023-08-30T17:19:09;4.25;;;1.15;;
41167;SDS011;26906;45.658;9.272;2023-08-30T17:21:35;4.47;;;1.15;;
41167;SDS011;26906;45.658;9.272;2023-08-30T17:24:03;4.55;;;1.00;;
41167;SDS011;26906;45.658;9.272;2023-08-30T17:26:29;3.72;;;1.55;;
41167;SDS011;26906;45.658;9.272;2023-08-30T17:28:55;4.13;;;1.13;;
41167;SDS011;26906;45.658;9.272;2023-08-30T17:31:21;3.60;;;0.88;;
41167;SDS011;26906;45.658;9.272;2023-08-30T17:33:49;5.45;;;1.35;;
41167;SDS011;26906;45.658;9.272;2023-08-30T17:36:15;5.18;;;1.17;;
41167;SDS011;26906;45.658;9.272;2023-08-30T17:38:41;7.68;;;2.25;;
41167;SDS011;26906;45.658;9.272;2023-08-30T17:41:09;3.17;;;1.10;;
41167;SDS011;26906;45.658;9.272;2023-08-30T17:43:36;4.25;;;1.10;;
41167;SDS011;26906;45.658;9.272;2023-08-30T17:46:02;5.05;;;0.70;;
41167;SDS011;26906;45.658;9.272;2023-08-30T17:48:31;1.88;;;0.70;;
41167;SDS011;26906;45.658;9.272;2023-08-30T17:50:58;1.60;;;0.60;;
41167;SDS011;26906;45.658;9.272;2023-08-30T17:53:24;1.98;;;0.70;;
41167;SDS011;26906;45.658;9.272;2023-08-30T17:55:53;1.75;;;0.80;;
41167;SDS011;26906;45.658;9.272;2023-08-30T17:58:20;1.25;;;0.60;;
41167;SDS011;26906;45.658;9.272;2023-08-30T18:00:46;0.95;;;0.70;;
41167;SDS011;26906;45.658;9.272;2023-08-30T18:03:12;2.47;;;0.47;;
41167;SDS011;26906;45.658;9.272;2023-08-30T18:05:37;1.30;;;0.55;;
41167;SDS011;26906;45.658;9.272;2023-08-30T18:08:03;2.67;;;0.60;;
41167;SDS011;26906;45.658;9.272;2023-08-30T18:10:29;2.60;;;0.60;;
41167;SDS011;26906;45.658;9.272;2023-08-30T18:12:55;1.20;;;0.57;;
41167;SDS011;26906;45.658;9.272;2023-08-30T18:15:21;1.95;;;0.80;;
41167;SDS011;26906;45.658;9.272;2023-08-30T18:17:47;3.10;;;0.70;;
41167;SDS011;26906;45.658;9.272;2023-08-30T18:20:13;2.47;;;0.95;;
41167;SDS011;26906;45.658;9.272;2023-08-30T18:22:39;2.90;;;0.90;;
41167;SDS011;26906;45.658;9.272;2023-08-30T18:25:07;1.35;;;0.70;;
41167;SDS011;26906;45.658;9.272;2023-08-30T18:27:33;3.05;;;0.85;;
41167;SDS011;26906;45.658;9.272;2023-08-30T18:29:58;1.35;;;0.82;;
41167;SDS011;26906;45.658;9.272;2023-08-30T18:32:24;1.65;;;0.60;;
41167;SDS011;26906;45.658;9.272;2023-08-30T18:34:50;3.85;;;0.90;;
41167;SDS011;26906;45.658;9.272;2023-08-30T18:37:15;2.28;;;0.93;;
41167;SDS011;26906;45.658;9.272;2023-08-30T18:39:41;1.98;;;0.90;;
41167;SDS011;26906;45.658;9.272;2023-08-30T18:42:06;4.43;;;1.30;;
41167;SDS011;26906;45.658;9.272;2023-08-30T18:44:32;2.60;;;1.13;;
41167;SDS011;26906;45.658;9.272;2023-08-30T18:46:58;7.78;;;1.70;;
41167;SDS011;26906;45.658;9.272;2023-08-30T18:49:24;2.65;;;1.20;;
41167;SDS011;26906;45.658;9.272;2023-08-30T18:51:49;3.20;;;1.10;;
41167;SDS011;26906;45.658;9.272;2023-08-30T18:54:15;3.75;;;1.00;;
41167;SDS011;26906;45.658;9.272;2023-08-30T18:56:41;2.78;;;0.73;;
41167;SDS011;26906;45.658;9.272;2023-08-30T18:59:08;4.95;;;1.10;;
41167;SDS011;26906;45.658;9.272;2023-08-30T19:01:34;2.28;;;0.90;;
41167;SDS011;26906;45.658;9.272;2023-08-30T19:04:00;3.38;;;1.00;;
41167;SDS011;26906;45.658;9.272;2023-08-30T19:06:26;1.70;;;1.00;;
41167;SDS011;26906;45.658;9.272;2023-08-30T19:08:52;3.67;;;1.30;;
41167;SDS011;26906;45.658;9.272;2023-08-30T19:11:18;2.75;;;1.00;;
41167;SDS011;26906;45.658;9.272;2023-08-30T19:13:44;3.67;;;1.20;;
41167;SDS011;26906;45.658;9.272;2023-08-30T19:16:12;2.72;;;0.93;;
41167;SDS011;26906;45.658;9.272;2023-08-30T19:18:43;2.25;;;1.00;;
41167;SDS011;26906;45.658;9.272;2023-08-30T19:21:08;4.30;;;1.48;;
41167;SDS011;26906;45.658;9.272;2023-08-30T19:23:35;2.33;;;1.48;;
41167;SDS011;26906;45.658;9.272;2023-08-30T19:26:02;4.47;;;1.63;;
41167;SDS011;26906;45.658;9.272;2023-08-30T19:28:28;1.90;;;0.98;;
41167;SDS011;26906;45.658;9.272;2023-08-30T19:30:54;2.55;;;1.05;;
41167;SDS011;26906;45.658;9.272;2023-08-30T19:33:20;2.85;;;1.00;;
41167;SDS011;26906;45.658;9.272;2023-08-30T19:35:47;1.65;;;1.38;;
41167;SDS011;26906;45.658;9.272;2023-08-30T19:38:12;2.40;;;0.88;;
41167;SDS011;26906;45.658;9.272;2023-08-30T19:40:47;3.78;;;1.10;;
41167;SDS011;26906;45.658;9.272;2023-08-30T19:43:16;4.38;;;0.80;;
41167;SDS011;26906;45.658;9.272;2023-08-30T19:45:42;5.07;;;1.15;;
41167;SDS011;26906;45.658;9.272;2023-08-30T19:48:08;2.53;;;1.38;;
41167;SDS011;26906;45.658;9.272;2023-08-30T19:50:35;1.13;;;0.90;;
41167;SDS011;26906;45.658;9.272;2023-08-30T19:53:01;1.88;;;1.40;;
41167;SDS011;26906;45.658;9.272;2023-08-30T19:55:28;3.50;;;2.05;;
41167;SDS011;26906;45.658;9.272;2023-08-30T19:57:54;1.33;;;1.10;;
41167;SDS011;26906;45.658;9.272;2023-08-30T20:00:20;1.55;;;0.90;;
41167;SDS011;26906;45.658;9.272;2023-08-30T20:02:46;3.15;;;0.93;;
41167;SDS011;26906;45.658;9.272;2023-08-30T20:05:12;3.08;;;1.25;;
41167;SDS011;26906;45.658;9.272;2023-08-30T20:07:38;2.83;;;1.00;;
41167;SDS011;26906;45.658;9.272;2023-08-30T20:10:04;1.50;;;0.93;;
41167;SDS011;26906;45.658;9.272;2023-08-30T20:12:31;5.95;;;1.30;;
41167;SDS011;26906;45.658;9.272;2023-08-30T20:14:57;1.90;;;1.15;;
41167;SDS011;26906;45.658;9.272;2023-08-30T20:17:22;4.22;;;1.25;;
41167;SDS011;26906;45.658;9.272;2023-08-30T20:19:48;2.35;;;1.00;;
41167;SDS011;26906;45.658;9.272;2023-08-30T20:22:16;2.47;;;1.10;;
41167;SDS011;26906;45.658;9.272;2023-08-30T20:24:41;2.47;;;0.90;;
41167;SDS011;26906;45.658;9.272;2023-08-30T20:27:07;3.55;;;1.63;;